createdAt,value
2023-04-18T04:38:18.607Z,4.10
2023-04-18T04:53:33.325Z,4.20
2023-04-18T05:08:37.104Z,5.70
2023-04-18T05:23:42.070Z,4.80
2023-04-18T05:38:43.985Z,4.35
2023-04-18T05:53:46.001Z,9.05
2023-04-18T06:08:52.816Z,9.18
2023-04-18T06:23:55.058Z,5.95
2023-04-18T06:39:00.958Z,7.10
2023-04-18T06:54:02.950Z,7.35
2023-04-18T07:09:04.944Z,7.13
2023-04-18T07:24:08.686Z,7.07
2023-04-18T07:39:13.069Z,6.95
2023-04-18T07:54:15.134Z,6.43
2023-04-18T08:09:21.517Z,7.45
2023-04-18T08:24:23.636Z,9.98
2023-04-18T08:39:25.794Z,10.27
2023-04-18T08:54:30.994Z,11.02
2023-04-18T09:09:50.498Z,10.60
2023-04-18T09:24:57.875Z,9.75
2023-04-18T09:40:05.836Z,9.07
2023-04-18T09:55:12.385Z,8.35
2023-04-18T10:10:14.563Z,8.50
2023-04-18T10:25:35.303Z,8.75
2023-04-18T10:40:38.628Z,7.82
2023-04-18T10:55:40.898Z,8.32
2023-04-18T11:10:42.896Z,8.65
2023-04-18T11:25:45.374Z,8.18
2023-04-18T11:40:52.873Z,8.13
2023-04-18T12:13:13.136Z,8.57
2023-04-18T12:28:15.855Z,8.65
2023-04-18T12:43:22.193Z,9.32
2023-04-18T13:32:26.134Z,10.98
2023-04-18T14:04:32.943Z,10.52
2023-04-18T14:20:44.365Z,10.30
2023-04-18T14:35:52.551Z,13.07
2023-04-18T15:07:04.933Z,10.35
2023-04-18T15:22:07.365Z,9.18
2023-04-18T15:37:09.560Z,10.25
2023-04-18T15:52:11.595Z,10.57
2023-04-18T16:07:13.517Z,9.52
2023-04-18T16:22:15.465Z,10.10
2023-04-18T16:37:17.528Z,10.15
2023-04-18T16:52:20.316Z,9.23
2023-04-18T17:07:22.259Z,9.50
2023-04-18T17:22:24.239Z,9.45
2023-04-18T17:37:26.673Z,9.00
2023-04-18T17:52:28.793Z,9.30
2023-04-18T18:07:34.706Z,8.13
2023-04-18T18:22:37.321Z,8.82
2023-04-18T18:37:41.131Z,8.30
2023-04-18T18:52:43.353Z,8.90
2023-04-18T19:07:45.295Z,8.95
2023-04-18T19:22:47.219Z,8.68
2023-04-18T19:37:49.123Z,8.40
2023-04-18T19:52:51.096Z,7.88
2023-04-18T20:07:53.119Z,7.82
2023-04-18T20:22:55.345Z,7.55
2023-04-18T20:37:57.853Z,8.25
2023-04-18T20:53:01.257Z,7.78
